James Ross

Chefscout - Fleetwood Town
10 Dez 2028
Sonntag
Verarbeitung

Persönlichkeit

Anpassungsfähigkeit (7) Ehrgeiz (18) Kontroverse (9) Loyalität (8) Druck (15) Professionalität (16) Fairness (1) Temperament (19)

Profil

Trainerstil Demokratisch
Lizenz Kontinentale C
Entschlossenheit 9
Menschenführung 10
Motivation 5
Disziplin 9
Arbeitszufriedenheit
100%
Ermüdung
0%
Rolle Chefscout
Gehalt 45.8K p/W
Vertrag 14.03.2030

Leistung

Verhalten Gut
Trainingseffektivität
24%
Spielerentwicklung
50%
Verletzungsprävention
15%
Taktische Umsetzung
20%

Letzte Ereignisse

Nahm an einer Scouting-Besprechung teil jetzt
Spieler begutachtet jetzt
Spieler begutachtet jetzt
Spieler begutachtet jetzt
Spieler begutachtet 7T her
Spieler begutachtet 7T her
Spieler begutachtet 7T her
Spieler begutachtet 7T her

Aktuell beobachtet

79
Spieler Verein Status Fähigkeit Vertrauen Beobachtet Zuletzt beobachtet Letzte Stimme
Yeferson Rodallega Envigado Aktiv 105 / 104 40% 2 09.12.2028 -
Luis Palacios Once Caldas Aktiv 116 / 132 40% 4 09.12.2028 -
Julián Palacios Envigado Aktiv 120 / 110 40% 1 09.12.2028 -
Mauro Valiente Estudiantes Aktiv 127 / 109 40% 4 08.12.2028 -
Chimobi Igwilo Rangers International Aktiv 84 / 110 40% 2 08.12.2028 -
Enzo González Defensores Aktiv 121 / 98 40% 2 08.12.2028 -
Santiago Sala Güemes Aktiv 108 / 118 40% 7 07.12.2028 -
Nahuel Curcio Colón Aktiv 124 / 125 40% 5 07.12.2028 -
Juan Sebastián Herrera Deportivo La Guaira Aktiv 108 / 103 40% 3 07.12.2028 -
Alcides Benítez Belgrano Aktiv 131 / 115 40% 2 06.12.2028 -
Federico Versaci Talleres Aktiv 117 / 99 40% 2 06.12.2028 -
Tomás Ferreyra Defensores Unidos Aktiv 127 / 110 40% 2 05.12.2028 -
Tomás Castro Ponce Atlanta Aktiv 110 / 105 40% 1 05.12.2028 -
Yuber Quiñónes Patriotas Aktiv 134 / 122 40% 2 03.12.2028 -
Pablo Cardona Cortulua Aktiv 123 / 129 40% 2 03.12.2028 -
Matías Ramírez Godoy Cruz Aktiv 113 / 112 40% 4 02.12.2028 -
Franco Vedoya Central Norte Aktiv 115 / 104 40% 2 02.12.2028 -
Kelly Madada AFC Leopards Aktiv 79 / 103 40% 2 30.11.2028 -
Iñaki Larthirigoyen San Telmo Aktiv 121 / 136 40% 1 30.11.2028 -
Matías Sosa Arsenal Aktiv 118 / 124 40% 3 28.11.2028 -
Federico Bisanz Atlanta Aktiv 109 / 114 40% 2 28.11.2028 -
Antonio Napolitano Agropecuario Argentino Aktiv 121 / 101 40% 1 28.11.2028 -
Dehinde Ibrahim Bayelsa United Aktiv 78 / 100 40% 2 26.11.2028 -
Kevin Colli Tristán Suárez Aktiv 109 / 121 40% 1 26.11.2028 -
Carlos Cantillo Jaguares Aktiv 118 / 106 40% 3 25.11.2028 -
Joseph Arumala Ikorodu City Aktiv 95 / 83 40% 6 23.11.2028 -
Facundo Taborda Racing Aktiv 109 / 125 40% 1 23.11.2028 -
Tomás Pozzo Godoy Cruz Aktiv 116 / 106 40% 1 22.11.2028 -
Abdulrahman Hamisu Niger Tornadoes Aktiv 79 / 78 40% 2 21.11.2028 -
Miguel Ceccotti Güemes Aktiv 120 / 92 40% 3 17.11.2028 -
Rodrigo González Mitre Aktiv 115 / 134 40% 4 17.11.2028 -
Estanislao Jara Madryn Aktiv 103 / 118 40% 1 15.11.2028 -
Tobi Ige Bendel Insurance Aktiv 102 / 107 40% 2 13.11.2028 -
Onuorah Onyedika Kun Khalifat Aktiv 88 / 91 40% 2 12.11.2028 -
Alpha Onyango Gor Mahia Aktiv 113 / 88 40% 1 12.11.2028 -
Augusto Berrondo Tristán Suárez Aktiv 112 / 103 40% 4 10.11.2028 -
Matías Bergara Nueva Chicago Aktiv 126 / 110 40% 2 10.11.2028 -
John Córdoba Millonarios Aktiv 124 / 131 40% 1 09.11.2028 -
Alao Dabani Nasarawa United Aktiv 99 / 89 40% 3 07.11.2028 -
Bruno Leyes Godoy Cruz Aktiv 131 / 116 40% 1 07.11.2028 -
Agustín Morales Estudiantes Aktiv 104 / 96 40% 1 07.11.2028 -
Ibrahim Yahaya Barau Aktiv 102 / 111 40% 1 06.11.2028 -
Patricio Moyano Defensores Aktiv 116 / 123 40% 2 01.11.2028 -
Siro Rosané Estudiantes Aktiv 134 / 114 40% 1 01.11.2028 -
Juan Velázquez Belgrano Aktiv 134 / 135 40% 1 27.10.2028 -
Nupe Godstime Bayelsa United Aktiv 94 / 101 40% 2 26.10.2028 -
Oliver Maloba Posta Rangers Aktiv 68 / 70 40% 1 26.10.2028 -
Tobías Leiva Estudiantes Aktiv 128 / 118 40% 2 25.10.2028 -
Ramón González Almirante Brown Aktiv 122 / 99 40% 2 24.10.2028 -
Olawale Emmanuel Niger Tornadoes Aktiv 102 / 81 40% 2 21.10.2028 -
Gideon Manaseh Ikorodu City Aktiv 90 / 87 40% 1 21.10.2028 -
Yackson Rivas Deportivo La Guaira Aktiv 124 / 108 40% 1 21.10.2028 -
José Barreto Quilmes Aktiv 107 / 117 40% 1 18.10.2028 -
Alejo Dramisino Atlanta Aktiv 127 / 114 40% 1 18.10.2028 -
Braian Aranda Agropecuario Argentino Aktiv 105 / 117 40% 1 18.10.2028 -
Vicente Poggi Godoy Cruz Aktiv 128 / 131 40% 2 16.10.2028 -
Thiago Lauro Morón Aktiv 123 / 108 40% 2 14.10.2028 -
Abubakar Bonni Enyimba Aktiv 78 / 92 40% 1 12.10.2028 -
Cesar Rubio Envigado Aktiv 126 / 126 40% 1 11.10.2028 -
Promise Itoro Bendel Insurance Aktiv 107 / 100 40% 1 10.10.2028 -
Pedro Souto Temperley Aktiv 128 / 121 40% 1 05.10.2028 -
Lucas Chiozza Alvarado Aktiv 104 / 111 40% 1 05.10.2028 -
Martín Campos Ferro Carril Oeste Aktiv 132 / 102 40% 1 03.10.2028 -
Princewill Ehibhatiomhan Southampton Abgelehnt 96 / 93 65% 1 07.08.2028 Ablehnen
Odel Offiah Shrewsbury Town Aktiv 131 / 126 40% 1 31.07.2028 -
Amankwah Forson Wycombe Wanderers Aktiv 141 / 120 40% 1 31.07.2028 -
Andre Dozzell Bradford City Aktiv 131 / 125 40% 1 31.07.2028 -
Reyes Cleary Bromley Aktiv 126 / 116 40% 1 10.07.2028 -
Jahnoah Markelo Coventry City Aktiv 123 / 132 40% 1 10.07.2028 -
Jake Evans Crewe Alexandra Abgelehnt 99 / 111 73% 1 01.01.2028 Ablehnen
Leo Pecover Swindon Town Abgelehnt 85 / 96 70% 1 01.01.2028 Ablehnen
Luke Brooke-Smith Chesterfield Abgelehnt 88 / 99 72% 1 01.01.2028 Ablehnen
Taylan Harris Shrewsbury Town Abgelehnt 91 / 97 67% 1 01.01.2028 Ablehnen
Freddie Issaka Plymouth Argyle Abgelehnt 85 / 93 73% 1 01.01.2028 Ablehnen
Alejandro Rincon Llaneros Abgelehnt 102 / 102 68% 1 01.06.2027 Ablehnen
Nehemiah Oriola Brighton Abgelehnt 86 / 88 65% 1 24.08.2026 Ablehnen
Harley Hunt Middlesbrough Abgelehnt 75 / 101 65% 1 10.08.2026 Ablehnen
Ferran Torres Paris Saint-Germain Aktiv 161 / 152 40% 1 01.08.2026 -
Cheikh Sabaly Vancouver Whitecaps Aktiv 126 / 138 40% 1 01.08.2026 -